MDT,Max TemperatureF,Mean TemperatureF,Min TemperatureF,Max Dew PointF,MeanDew PointF,Min DewpointF,Max Humidity, Mean Humidity, Min Humidity, Max Sea Level PressureIn, Mean Sea Level PressureIn, Min Sea Level PressureIn, Max VisibilityMiles, Mean VisibilityMiles, Min VisibilityMiles, Max Wind SpeedMPH, Mean Wind SpeedMPH, Max Gust SpeedMPH,PrecipitationIn, CloudCover, Events, WindDirDegrees
2012-9-1,85,65,45,42,36,32,65,41,16,30.34,30.04,29.94,10,10,10,15,6,22,0.00,1,,210
2012-9-2,84,67,49,48,43,39,71,47,23,30.35,30.06,29.97,10,10,9,28,7,36,T,3,Rain,30
2012-9-3,82,63,44,55,46,37,86,54,21,30.32,30.12,29.99,10,10,2,35,5,43,0.09,4,Rain-Thunderstorm,12
2012-9-4,83,60,37,46,37,28,93,54,15,30.31,30.09,29.98,10,10,5,35,6,48,0.04,1,Rain-Thunderstorm,316
2012-9-5,83,63,43,44,31,20,86,49,12,30.29,30.02,29.91,10,10,10,16,4,21,0.00,1,,15
2012-9-6,84,58,32,36,28,20,75,43,11,30.13,30.02,29.94,10,10,10,13,4,18,0.00,0,,233
2012-9-7,77,60,42,43,37,31,65,44,23,30.28,30.08,29.93,10,10,10,26,10,36,T,2,Rain-Thunderstorm,125
2012-9-8,67,55,42,46,43,40,83,63,42,30.34,30.25,30.17,10,10,10,16,7,22,T,4,,170
2012-9-9,75,54,33,42,34,7,100,54,7,30.48,30.31,30.10,10,6,0,13,4,21,0.00,1,Fog,176
2012-9-10,78,59,40,42,38,34,93,57,20,30.29,30.05,29.95,10,10,10,17,6,23,0.00,1,,173
2012-9-11,77,64,50,53,46,40,77,52,27,30.23,30.00,29.86,10,10,5,33,7,39,0.07,6,Rain-Thunderstorm,157
2012-9-12,58,52,45,52,48,42,100,89,77,30.43,30.17,29.93,10,8,0,18,6,23,0.85,7,Fog-Rain-Thunderstorm,101
2012-9-13,66,53,40,44,40,32,100,66,32,30.41,30.35,30.28,10,10,10,14,4,20,0.00,1,,239
2012-9-14,69,50,31,38,32,28,100,61,22,30.52,30.37,30.26,10,10,8,15,5,18,0.00,0,,254
2012-9-15,76,54,31,35,28,12,85,47,9,30.47,30.23,30.10,10,10,10,12,3,14,0.00,0,,157
2012-9-16,78,55,32,37,29,12,89,49,9,30.35,30.09,29.99,10,10,10,15,3,17,0.00,1,,339
2012-9-17,70,52,33,40,32,22,92,55,18,30.26,30.08,29.96,10,10,8,29,8,37,T,2,Rain,161
2012-9-18,71,48,25,38,31,25,100,60,20,30.41,30.26,30.12,10,8,0,9,3,15,0.00,1,Fog,241
2012-9-19,76,53,29,33,25,16,85,48,11,30.39,30.17,30.09,10,10,9,10,3,14,T,0,,201
2012-9-20,76,54,31,28,22,12,72,41,9,30.36,30.13,30.03,10,10,10,14,4,18,0.00,0,,304
2012-9-21,79,54,28,29,25,19,78,45,12,30.32,30.19,30.06,10,10,10,12,4,17,0.00,0,,183
2012-9-22,79,55,30,29,23,15,75,42,9,30.40,30.21,30.08,10,10,10,21,6,26,0.00,0,,224
2012-9-23,77,55,33,32,27,22,70,42,14,30.42,30.17,30.11,10,10,10,18,4,28,0.00,1,,274
2012-9-24,74,58,41,42,36,30,89,56,22,30.32,30.10,29.99,10,9,2,38,7,45,T,4,Rain-Thunderstorm,22
2012-9-25,68,51,34,45,39,34,100,67,34,30.20,30.04,29.85,10,8,0,23,5,30,0.02,4,Fog-Rain,321
2012-9-26,67,49,31,40,34,28,96,62,27,30.22,30.09,29.98,10,10,2,20,7,30,0.01,4,Rain-Thunderstorm,175
2012-9-27,70,48,26,39,33,25,89,56,22,30.19,30.12,30.04,10,10,10,17,5,25,0.00,2,,337
2012-9-28,71,49,27,40,32,25,92,56,20,30.27,30.13,30.02,10,10,10,16,4,23,0.00,0,,120
2012-9-29,72,60,48,40,33,26,66,43,19,30.35,30.27,30.09,10,10,10,12,5,16,0.02,1,Rain,57
2012-9-30,71,50,28,36,31,22,100,58,16,30.22,30.12,30.05,10,10,10,20,7,25,0.00,1,,290